createdAt,value
2017-08-01T00:00:14.210Z,14.26
2017-08-01T00:01:14.195Z,14.12
2017-08-01T00:02:14.183Z,14.23
2017-08-01T00:03:14.184Z,14.24
2017-08-01T00:04:13.882Z,14.2
2017-08-01T00:05:27.824Z,14.21
2017-08-01T00:06:14.165Z,14.3
2017-08-01T00:07:14.170Z,14.23
2017-08-01T00:08:14.159Z,14.21
2017-08-01T00:09:14.167Z,14.19
2017-08-01T00:10:13.846Z,14.16
2017-08-01T00:11:13.848Z,14.23
2017-08-01T00:12:13.827Z,14.09
2017-08-01T00:13:14.145Z,14.36
2017-08-01T00:14:14.130Z,14.42
2017-08-01T00:15:14.109Z,14.31
2017-08-01T00:16:14.112Z,14.23
2017-08-01T00:17:13.794Z,14.3
2017-08-01T00:18:14.141Z,14.31
2017-08-01T00:19:14.099Z,14.27
2017-08-01T00:20:14.094Z,14.3
2017-08-01T00:21:13.794Z,14.26
2017-08-01T00:22:14.085Z,14.34
2017-08-01T00:23:14.070Z,14.44
2017-08-01T00:24:14.063Z,14.21
2017-08-01T00:25:14.067Z,14.12
2017-08-01T00:26:14.050Z,14.19
2017-08-01T00:27:14.042Z,14.23
2017-08-01T00:28:14.047Z,14.06
2017-08-01T00:29:14.035Z,14.05
2017-08-01T00:30:13.735Z,13.99
2017-08-01T00:31:14.030Z,13.79
2017-08-01T00:32:14.019Z,13.79
2017-08-01T00:33:14.017Z,13.76
2017-08-01T00:34:14.010Z,13.8
2017-08-01T00:35:13.990Z,14.05
2017-08-01T00:36:14.000Z,14.02
2017-08-01T00:37:14.000Z,13.9
2017-08-01T00:38:13.985Z,13.99
2017-08-01T00:39:13.985Z,13.91
2017-08-01T00:40:13.973Z,13.9
2017-08-01T00:41:13.658Z,13.93
2017-08-01T00:42:13.961Z,13.93
2017-08-01T00:43:13.946Z,14.04
2017-08-01T00:44:13.944Z,14.02
2017-08-01T00:45:13.939Z,14.04
2017-08-01T00:46:13.632Z,13.81
2017-08-01T00:47:13.928Z,13.9
2017-08-01T00:48:13.918Z,14.01
2017-08-01T00:49:13.914Z,14.01
2017-08-01T00:50:13.913Z,14.04
2017-08-01T00:51:13.907Z,13.99
2017-08-01T00:52:13.617Z,14.02
2017-08-01T00:53:13.895Z,13.87
2017-08-01T00:54:13.890Z,14.01
2017-08-01T00:55:13.888Z,14.05
2017-08-01T00:56:13.869Z,13.88
2017-08-01T00:57:13.870Z,13.76
2017-08-01T00:58:13.863Z,13.86
2017-08-01T00:59:13.560Z,13.79
2017-08-01T01:00:13.849Z,13.79
2017-08-01T01:01:13.852Z,13.75
2017-08-01T01:02:13.840Z,13.75
2017-08-01T01:03:13.825Z,13.93
2017-08-01T01:04:13.829Z,13.88
2017-08-01T01:05:13.831Z,13.75
2017-08-01T01:06:13.814Z,13.8
2017-08-01T01:07:13.800Z,13.69
2017-08-01T01:08:13.798Z,13.65
2017-08-01T01:09:13.807Z,13.73
2017-08-01T01:10:13.789Z,13.61
2017-08-01T01:11:13.783Z,13.72
2017-08-01T01:12:13.778Z,13.68
2017-08-01T01:13:13.463Z,13.57
2017-08-01T01:14:13.467Z,13.46
2017-08-01T01:15:13.754Z,13.55
2017-08-01T01:16:13.754Z,13.38
2017-08-01T01:17:13.748Z,13.13
2017-08-01T01:18:13.735Z,13.17
2017-08-01T01:19:13.428Z,13.22
2017-08-01T01:20:13.739Z,13.28
2017-08-01T01:21:13.709Z,13.28
2017-08-01T01:22:13.708Z,13.29
2017-08-01T01:23:13.697Z,13.21
2017-08-01T01:24:13.704Z,13.31
2017-08-01T01:25:13.691Z,13.39
2017-08-01T01:26:13.694Z,13.41
2017-08-01T01:27:13.680Z,13.57
2017-08-01T01:28:13.675Z,13.41
2017-08-01T01:29:13.673Z,13.68
2017-08-01T01:30:13.649Z,13.54
2017-08-01T01:31:13.644Z,13.62
2017-08-01T01:32:13.651Z,13.54
2017-08-01T01:33:13.652Z,13.53
2017-08-01T01:34:13.631Z,13.44
2017-08-01T01:35:13.627Z,13.5
2017-08-01T01:36:13.627Z,13.44
2017-08-01T01:37:13.609Z,13.55
2017-08-01T01:38:13.610Z,13.44
2017-08-01T01:39:13.596Z,13.57
2017-08-01T01:40:13.288Z,13.55
2017-08-01T01:41:13.595Z,13.54
2017-08-01T01:42:13.569Z,13.72
2017-08-01T01:43:13.570Z,13.68
2017-08-01T01:44:13.571Z,13.46
2017-08-01T01:45:13.556Z,13.47
2017-08-01T01:46:13.554Z,13.55
2017-08-01T01:47:13.547Z,13.41
2017-08-01T01:48:13.236Z,13.55
2017-08-01T01:49:13.534Z,13.66
2017-08-01T01:50:13.225Z,13.39
2017-08-01T01:51:13.518Z,13.39
2017-08-01T01:52:13.508Z,13.16
2017-08-01T01:53:13.194Z,13.19
2017-08-01T01:54:13.502Z,13.25
2017-08-01T01:55:13.481Z,13.21
2017-08-01T01:56:13.188Z,13.31
2017-08-01T01:57:13.473Z,13.36
2017-08-01T01:58:13.471Z,13.39
2017-08-01T01:59:13.453Z,13.31
2017-08-01T02:00:13.459Z,13.16
2017-08-01T02:01:13.444Z,13.19
2017-08-01T02:02:13.433Z,13.19
2017-08-01T02:03:13.439Z,13.21
2017-08-01T02:04:13.426Z,13.22
2017-08-01T02:05:13.432Z,13.22
2017-08-01T02:06:13.422Z,13.29
2017-08-01T02:07:13.401Z,13.5
2017-08-01T02:08:13.409Z,13.39
2017-08-01T02:09:13.392Z,13.29
2017-08-01T02:10:13.383Z,13.41
2017-08-01T02:11:13.381Z,13.43
2017-08-01T02:12:13.374Z,13.29
2017-08-01T02:13:13.366Z,13.48
2017-08-01T02:14:13.357Z,13.55
2017-08-01T02:15:13.356Z,13.44
2017-08-01T02:16:13.343Z,13.59
2017-08-01T02:17:13.341Z,13.55
2017-08-01T02:18:13.329Z,13.61
2017-08-01T02:19:13.343Z,13.69
2017-08-01T02:20:13.319Z,13.54
2017-08-01T02:21:13.312Z,13.44
2017-08-01T02:22:13.295Z,13.32
2017-08-01T02:23:13.305Z,13.39
2017-08-01T02:24:13.290Z,13.38
2017-08-01T02:25:12.984Z,13.43
2017-08-01T02:26:13.278Z,13.5
2017-08-01T02:27:13.265Z,13.55
2017-08-01T02:28:13.271Z,13.57
2017-08-01T02:29:13.263Z,13.41
2017-08-01T02:30:13.272Z,13.43
2017-08-01T02:31:13.250Z,13.46
2017-08-01T02:32:13.232Z,13.39
2017-08-01T02:33:13.240Z,13.44
2017-08-01T02:34:13.232Z,13.43
2017-08-01T02:35:13.225Z,13.41
2017-08-01T02:36:13.210Z,13.57
2017-08-01T02:37:13.210Z,13.65
2017-08-01T02:38:13.193Z,13.38
2017-08-01T02:39:12.893Z,13.32
2017-08-01T02:40:13.199Z,13.24
2017-08-01T02:41:13.181Z,13.24
2017-08-01T02:42:13.171Z,13.29
2017-08-01T02:43:13.172Z,13.48
2017-08-01T02:44:12.855Z,13.39
2017-08-01T02:45:13.153Z,13.43
2017-08-01T02:46:13.141Z,13.41
2017-08-01T02:47:13.142Z,13.46
2017-08-01T02:48:13.135Z,13.43
2017-08-01T02:49:12.820Z,13.44
2017-08-01T02:50:13.130Z,13.44
2017-08-01T02:51:12.812Z,13.38
2017-08-01T02:52:13.106Z,13.31
2017-08-01T02:53:13.107Z,13.35
2017-08-01T02:54:13.091Z,13.39
2017-08-01T02:55:13.093Z,13.43
2017-08-01T02:56:13.086Z,13.46
2017-08-01T02:57:13.072Z,13.57
2017-08-01T02:58:13.077Z,13.68
2017-08-01T02:59:13.059Z,13.57
2017-08-01T03:00:13.074Z,13.54
2017-08-01T03:01:13.053Z,13.44
2017-08-01T03:02:13.040Z,13.46
2017-08-01T03:03:13.039Z,13.35
2017-08-01T03:04:13.025Z,13.38
2017-08-01T03:05:13.012Z,13.17
2017-08-01T03:06:13.027Z,13.25
2017-08-01T03:07:13.012Z,13.41
2017-08-01T03:08:13.002Z,13.46
2017-08-01T03:09:12.995Z,13.46
2017-08-01T03:10:12.997Z,13.54
2017-08-01T03:11:12.983Z,13.73
2017-08-01T03:12:12.982Z,13.73
2017-08-01T03:13:12.670Z,13.66
2017-08-01T03:14:12.966Z,13.65
2017-08-01T03:15:12.963Z,13.55
2017-08-01T03:16:12.945Z,13.54
2017-08-01T03:17:12.945Z,13.65
2017-08-01T03:18:12.931Z,13.69
2017-08-01T03:19:12.936Z,13.71
2017-08-01T03:20:12.938Z,13.55
2017-08-01T03:21:12.917Z,13.66
2017-08-01T03:22:12.602Z,13.68
2017-08-01T03:23:12.901Z,13.69
2017-08-01T03:24:12.588Z,13.68
2017-08-01T03:25:12.898Z,13.69
2017-08-01T03:26:12.893Z,13.71
2017-08-01T03:27:12.886Z,13.61
2017-08-01T03:28:12.879Z,13.44
2017-08-01T03:29:12.872Z,13.44
2017-08-01T03:30:12.870Z,13.46
2017-08-01T03:31:12.855Z,13.31
2017-08-01T03:32:12.851Z,13.55
2017-08-01T03:33:12.850Z,13.54
2017-08-01T03:34:12.828Z,13.63
2017-08-01T03:35:12.837Z,13.53
2017-08-01T03:36:12.836Z,13.63
2017-08-01T03:37:12.817Z,13.65
2017-08-01T03:38:12.821Z,13.69
2017-08-01T03:39:12.796Z,13.65
2017-08-01T03:40:12.809Z,13.75
2017-08-01T03:41:12.793Z,13.79
2017-08-01T03:42:12.785Z,13.75
2017-08-01T03:43:12.773Z,13.71
2017-08-01T03:44:12.474Z,13.68
2017-08-01T03:45:12.471Z,13.72
2017-08-01T03:46:12.762Z,13.65
2017-08-01T03:47:12.747Z,13.71
2017-08-01T03:48:12.741Z,13.68
2017-08-01T03:49:12.743Z,13.65
2017-08-01T03:50:12.750Z,13.73
2017-08-01T03:51:12.722Z,13.72
2017-08-01T03:52:12.424Z,13.54
2017-08-01T03:53:12.426Z,13.54
2017-08-01T03:54:12.402Z,13.61
2017-08-01T03:55:12.403Z,13.54
2017-08-01T03:56:12.697Z,13.57
2017-08-01T03:57:12.699Z,13.55
2017-08-01T03:58:12.696Z,13.55
2017-08-01T03:59:12.677Z,13.69
2017-08-01T04:00:12.381Z,13.57
2017-08-01T04:01:12.666Z,13.54
2017-08-01T04:02:12.662Z,13.57
2017-08-01T04:03:12.652Z,13.46
2017-08-01T04:04:12.651Z,13.44
2017-08-01T04:05:12.644Z,13.46
2017-08-01T04:06:12.643Z,13.54
2017-08-01T04:07:12.629Z,13.59
2017-08-01T04:08:12.324Z,13.39
2017-08-01T04:09:12.625Z,13.39
2017-08-01T04:10:12.607Z,13.43
2017-08-01T04:11:12.632Z,13.44
2017-08-01T04:12:12.599Z,13.54
2017-08-01T04:13:12.587Z,13.55
2017-08-01T04:14:12.588Z,13.38
2017-08-01T04:15:12.579Z,13.43
2017-08-01T04:16:12.585Z,13.57
2017-08-01T04:17:12.562Z,13.68
2017-08-01T04:18:12.559Z,13.68
2017-08-01T04:19:12.254Z,13.75
2017-08-01T04:20:12.245Z,13.76
2017-08-01T04:21:12.238Z,13.66
2017-08-01T04:22:12.550Z,13.71
2017-08-01T04:23:12.227Z,13.59
2017-08-01T04:24:12.513Z,13.59
2017-08-01T04:25:12.509Z,13.53
2017-08-01T04:26:12.518Z,13.55
2017-08-01T04:27:12.503Z,13.66
2017-08-01T04:28:12.509Z,13.55
2017-08-01T04:29:12.491Z,13.66
2017-08-01T04:30:12.493Z,13.61
2017-08-01T04:31:12.482Z,13.61
2017-08-01T04:32:12.472Z,13.48
2017-08-01T04:33:12.474Z,13.57
2017-08-01T04:34:12.455Z,13.5
2017-08-01T04:35:12.459Z,13.59
2017-08-01T04:36:12.471Z,13.5
2017-08-01T04:37:12.437Z,13.53
2017-08-01T04:38:12.432Z,13.62
2017-08-01T04:39:12.434Z,13.71
2017-08-01T04:40:12.421Z,13.69
2017-08-01T04:41:12.415Z,13.54
2017-08-01T04:42:12.416Z,13.69
2017-08-01T04:43:12.424Z,13.63
2017-08-01T04:44:12.407Z,13.71
2017-08-01T04:45:12.391Z,13.66
2017-08-01T04:46:12.384Z,13.66
2017-08-01T04:47:12.388Z,13.62
2017-08-01T04:48:12.378Z,13.66
2017-08-01T04:49:12.368Z,13.76
2017-08-01T04:50:12.364Z,14.11
2017-08-01T04:51:12.355Z,14.41
2017-08-01T04:52:12.049Z,14.54
2017-08-01T04:53:12.333Z,14.64
2017-08-01T04:54:12.340Z,14.69
2017-08-01T04:55:12.336Z,14.8
2017-08-01T04:56:12.019Z,14.72
2017-08-01T04:57:12.321Z,14.87
2017-08-01T04:58:12.006Z,14.63
2017-08-01T04:59:12.000Z,14.82
2017-08-01T05:00:12.309Z,14.86
2017-08-01T05:01:12.293Z,15.01
2017-08-01T05:02:12.299Z,15.18
2017-08-01T05:03:12.285Z,14.79
2017-08-01T05:04:12.282Z,14.57
2017-08-01T05:05:11.971Z,14.82
2017-08-01T05:06:11.666Z,15.04
2017-08-01T05:07:12.263Z,15.13
2017-08-01T05:08:12.249Z,15.11
2017-08-01T05:09:12.255Z,15.13
2017-08-01T05:10:12.241Z,15.19
2017-08-01T05:11:12.238Z,15.25
2017-08-01T05:12:11.931Z,15.16
2017-08-01T05:13:12.240Z,15.3
2017-08-01T05:14:12.214Z,15.3
2017-08-01T05:15:12.221Z,15.15
2017-08-01T05:16:12.208Z,15.16
2017-08-01T05:17:12.202Z,15.41
2017-08-01T05:18:12.206Z,15.64
2017-08-01T05:19:12.193Z,15.68
2017-08-01T05:20:12.188Z,15.71
2017-08-01T05:21:12.185Z,15.66
2017-08-01T05:22:12.189Z,15.68
2017-08-01T05:23:12.169Z,15.84
2017-08-01T05:24:12.168Z,15.96
2017-08-01T05:25:12.167Z,15.81
2017-08-01T05:26:12.156Z,15.6
2017-08-01T05:27:12.153Z,15.67
2017-08-01T05:28:11.832Z,15.52
2017-08-01T05:29:12.135Z,15.59
2017-08-01T05:30:12.125Z,15.64
2017-08-01T05:31:12.123Z,15.92
2017-08-01T05:32:12.118Z,15.89
2017-08-01T05:33:12.113Z,15.99
2017-08-01T05:34:12.109Z,16.06
2017-08-01T05:35:12.108Z,15.95
2017-08-01T05:36:12.104Z,15.77
2017-08-01T05:37:12.084Z,15.66
2017-08-01T05:38:12.092Z,15.78
2017-08-01T05:39:12.082Z,16.06
2017-08-01T05:40:12.078Z,16.27
2017-08-01T05:41:12.069Z,16.26
2017-08-01T05:42:12.072Z,16.32
2017-08-01T05:43:12.063Z,16.54
2017-08-01T05:44:12.063Z,16.25
2017-08-01T05:45:12.055Z,16.03
2017-08-01T05:46:12.043Z,16.1
2017-08-01T05:47:12.054Z,15.91
2017-08-01T05:48:11.742Z,15.92
2017-08-01T05:49:12.033Z,15.73
2017-08-01T05:50:12.031Z,15.88
2017-08-01T05:51:11.714Z,15.81
2017-08-01T05:52:12.016Z,15.85
2017-08-01T05:53:12.011Z,15.96
2017-08-01T05:54:11.700Z,16.03
2017-08-01T05:55:11.999Z,16.03
2017-08-01T05:56:11.693Z,15.66
2017-08-01T05:57:11.674Z,15.95
2017-08-01T05:58:11.677Z,16.14
2017-08-01T05:59:11.970Z,16.25
2017-08-01T06:00:11.983Z,16.17
2017-08-01T06:01:11.968Z,16.37
2017-08-01T06:02:11.961Z,16.33
2017-08-01T06:03:11.949Z,16.11
2017-08-01T06:04:11.948Z,15.89
2017-08-01T06:05:11.944Z,15.6
2017-08-01T06:06:11.937Z,15.92
2017-08-01T06:07:11.925Z,16.11
2017-08-01T06:08:11.622Z,16.51
2017-08-01T06:09:11.929Z,16.8
2017-08-01T06:10:11.914Z,16.95
2017-08-01T06:11:11.908Z,16.87
2017-08-01T06:12:11.903Z,16.65
2017-08-01T06:13:11.905Z,16.54
2017-08-01T06:14:11.889Z,16.5
2017-08-01T06:15:11.889Z,16.98
2017-08-01T06:16:11.886Z,17.17
2017-08-01T06:17:11.876Z,17.17
2017-08-01T06:18:11.882Z,17.33
2017-08-01T06:19:11.874Z,17.3
2017-08-01T06:20:11.556Z,17.17
2017-08-01T06:21:11.550Z,17.36
2017-08-01T06:22:11.850Z,17.15
2017-08-01T06:23:11.851Z,17.33
2017-08-01T06:24:11.841Z,17.42
2017-08-01T06:25:11.838Z,17.35
2017-08-01T06:26:11.843Z,16.04
2017-08-01T06:27:11.835Z,15.89
2017-08-01T06:28:11.823Z,16.1
2017-08-01T06:29:11.819Z,16.34
2017-08-01T06:30:11.818Z,16.4
2017-08-01T06:31:11.805Z,16.8
2017-08-01T06:32:11.499Z,17.36
2017-08-01T06:33:11.799Z,17.18
2017-08-01T06:34:11.813Z,16.17
2017-08-01T06:35:11.800Z,16.85
2017-08-01T06:36:11.786Z,16.9
2017-08-01T06:37:11.786Z,17.15
2017-08-01T06:38:11.779Z,16.85
2017-08-01T06:39:11.459Z,16.55
2017-08-01T06:40:11.460Z,16.3
2017-08-01T06:41:11.775Z,16.14
2017-08-01T06:42:11.445Z,16.33
2017-08-01T06:43:11.754Z,16.78
2017-08-01T06:44:11.141Z,17.14
2017-08-01T06:45:11.733Z,16.78
2017-08-01T06:46:11.735Z,16.78
2017-08-01T06:47:11.132Z,17.09
2017-08-01T06:48:11.724Z,17.14
2017-08-01T06:49:11.728Z,17.12
2017-08-01T06:50:11.719Z,17.38
2017-08-01T06:51:11.718Z,17.92
2017-08-01T06:52:11.711Z,18.13
2017-08-01T06:53:11.708Z,17.91
2017-08-01T06:54:11.707Z,17.68
2017-08-01T06:55:11.710Z,18.05
2017-08-01T06:56:11.689Z,17.8
2017-08-01T06:57:11.695Z,17.47
2017-08-01T06:58:11.385Z,17.42
2017-08-01T06:59:11.690Z,17.39
2017-08-01T07:00:11.682Z,17.38
2017-08-01T07:01:11.668Z,17.62
2017-08-01T07:02:11.678Z,17.66
2017-08-01T07:03:11.368Z,18.19
2017-08-01T07:04:11.058Z,18.13
2017-08-01T07:05:11.648Z,17.98
2017-08-01T07:06:11.067Z,18.1
2017-08-01T07:07:11.652Z,18.2
2017-08-01T07:08:11.635Z,18.25
2017-08-01T07:09:11.650Z,17.89
2017-08-01T07:10:11.642Z,17.77
2017-08-01T07:11:11.635Z,17.76
2017-08-01T07:12:11.322Z,17.7
2017-08-01T07:13:11.623Z,17.86
2017-08-01T07:14:11.613Z,17.7
2017-08-01T07:15:11.627Z,17.74
2017-08-01T07:16:11.608Z,17.84
2017-08-01T07:17:11.296Z,17.58
2017-08-01T07:18:11.601Z,17.65
2017-08-01T07:19:11.603Z,17.73
2017-08-01T07:20:11.582Z,17.81
2017-08-01T07:21:11.590Z,17.66
2017-08-01T07:22:11.282Z,17.89
2017-08-01T07:23:11.279Z,17.98
2017-08-01T07:24:11.621Z,18.23
2017-08-01T07:25:11.572Z,18.39
2017-08-01T07:26:11.567Z,18.74
2017-08-01T07:27:11.249Z,18.66
2017-08-01T07:28:11.557Z,18.46
2017-08-01T07:29:11.544Z,18.53
2017-08-01T07:30:11.551Z,18.38
2017-08-01T07:31:11.238Z,18.6
2017-08-01T07:32:11.232Z,18.59
2017-08-01T07:33:11.536Z,18.34
2017-08-01T07:34:11.234Z,18.36
2017-08-01T07:35:11.538Z,18.16
2017-08-01T07:36:11.215Z,17.98
2017-08-01T07:37:11.218Z,17.79
2017-08-01T07:38:11.213Z,17.99
2017-08-01T07:39:11.213Z,18.04
2017-08-01T07:40:11.209Z,18.11
2017-08-01T07:41:11.195Z,18.23
2017-08-01T07:42:11.188Z,18.36
2017-08-01T07:43:11.487Z,18.65
2017-08-01T07:44:11.197Z,18.69
2017-08-01T07:45:11.189Z,18.86
2017-08-01T07:46:11.488Z,19.05
2017-08-01T07:47:11.481Z,18.53
2017-08-01T07:48:11.466Z,18.35
2017-08-01T07:49:11.476Z,18.54
2017-08-01T07:50:11.468Z,18.2
2017-08-01T07:51:11.419Z,18.21
2017-08-01T07:52:11.454Z,18.54
2017-08-01T07:53:11.461Z,18.84
2017-08-01T07:54:11.457Z,19.32
2017-08-01T07:55:11.454Z,19.55
2017-08-01T07:56:11.141Z,19.68
2017-08-01T07:57:11.441Z,19.3
2017-08-01T07:58:11.445Z,18.94
2017-08-01T07:59:11.433Z,18.74
2017-08-01T08:00:11.120Z,18.56
2017-08-01T08:01:11.428Z,18.38
2017-08-01T08:02:11.433Z,18.21
2017-08-01T08:03:11.424Z,18.64
2017-08-01T08:04:11.424Z,18.83
2017-08-01T08:05:11.414Z,19.24
2017-08-01T08:06:11.409Z,18.69
2017-08-01T08:07:11.412Z,18.89
2017-08-01T08:08:11.401Z,18.76
2017-08-01T08:09:11.398Z,19.25
2017-08-01T08:10:11.400Z,19.13
2017-08-01T08:11:11.382Z,19.17
2017-08-01T08:12:11.083Z,19.05
2017-08-01T08:13:11.388Z,18.62
2017-08-01T08:14:11.077Z,18.64
2017-08-01T08:15:11.390Z,18.94
2017-08-01T08:16:11.383Z,19.27
2017-08-01T08:17:11.361Z,19.2
2017-08-01T08:18:11.377Z,19.28
2017-08-01T08:19:11.364Z,19.7
2017-08-01T08:20:11.368Z,19.94
2017-08-01T08:21:11.350Z,19.92
2017-08-01T08:22:11.048Z,19.89
2017-08-01T08:23:11.352Z,19.13
2017-08-01T08:24:11.341Z,19.16
2017-08-01T08:25:11.052Z,19.61
2017-08-01T08:26:11.032Z,20.2
2017-08-01T08:27:11.030Z,20.51
2017-08-01T08:28:11.388Z,20.48
2017-08-01T08:29:11.338Z,20.53
2017-08-01T08:30:11.035Z,20.19
2017-08-01T08:31:11.026Z,20.42
2017-08-01T08:32:11.336Z,20.78
2017-08-01T08:33:11.325Z,20.4
2017-08-01T08:34:11.332Z,20.23
2017-08-01T08:35:11.318Z,20.72
2017-08-01T08:36:11.320Z,20.97
2017-08-01T08:37:11.020Z,20.73
2017-08-01T08:38:11.318Z,19.24
2017-08-01T08:39:11.007Z,19.5
2017-08-01T08:40:11.010Z,19.94
2017-08-01T08:41:11.007Z,19.25
2017-08-01T08:42:11.312Z,19.07
2017-08-01T08:43:11.006Z,19.67
2017-08-01T08:44:11.309Z,20.22
2017-08-01T08:45:10.693Z,20.73
2017-08-01T08:46:11.311Z,21.27
2017-08-01T08:47:11.294Z,21.3
2017-08-01T08:48:11.289Z,21.38
2017-08-01T08:49:11.292Z,21.42
2017-08-01T08:50:11.288Z,21.27
2017-08-01T08:51:11.294Z,21.63
2017-08-01T08:52:11.286Z,21.26
2017-08-01T08:53:10.978Z,21.22
2017-08-01T08:54:11.281Z,21.01
2017-08-01T08:55:10.678Z,20.6
2017-08-01T08:56:10.969Z,20.38
2017-08-01T08:57:11.281Z,20.79
2017-08-01T08:58:11.279Z,21.15
2017-08-01T08:59:11.260Z,21.19
2017-08-01T09:00:11.267Z,21.19
2017-08-01T09:01:11.270Z,20.93
2017-08-01T09:02:11.260Z,20.96
2017-08-01T09:03:11.268Z,21.37
2017-08-01T09:04:10.961Z,22.08
2017-08-01T09:05:11.270Z,22.12
2017-08-01T09:06:11.264Z,22.14
2017-08-01T09:07:11.259Z,21.94
2017-08-01T09:08:11.263Z,22.38
2017-08-01T09:09:11.253Z,22.99
2017-08-01T09:10:10.955Z,22.99
2017-08-01T09:11:11.279Z,22.99
2017-08-01T09:12:11.251Z,22.82
2017-08-01T09:13:11.253Z,22.24
2017-08-01T09:14:11.284Z,22.75
2017-08-01T09:15:11.245Z,23.16
2017-08-01T09:16:11.238Z,22.69
2017-08-01T09:17:11.245Z,22.64
2017-08-01T09:18:11.247Z,22.67
2017-08-01T09:19:11.242Z,22.63
2017-08-01T09:20:11.240Z,22.35
2017-08-01T09:21:11.244Z,22.35
2017-08-01T09:22:11.244Z,22.21
2017-08-01T09:23:11.241Z,21.94
2017-08-01T09:24:10.947Z,22.21
2017-08-01T09:25:11.237Z,21.13
2017-08-01T09:26:11.242Z,19.62
2017-08-01T09:27:11.237Z,19.47
2017-08-01T09:28:10.941Z,19.53
2017-08-01T09:29:10.932Z,20.13
2017-08-01T09:30:11.240Z,20.72
2017-08-01T09:31:11.228Z,21.16
2017-08-01T09:32:11.239Z,21.51
2017-08-01T09:33:11.226Z,22.2
2017-08-01T09:34:11.240Z,22.81
2017-08-01T09:35:11.246Z,23.19
2017-08-01T09:36:11.228Z,22.75
2017-08-01T09:37:11.228Z,21.27
2017-08-01T09:38:10.917Z,21.75
2017-08-01T09:39:10.917Z,21.55
2017-08-01T09:40:10.918Z,21.56
2017-08-01T09:41:10.912Z,21.49
2017-08-01T09:42:10.914Z,21.64
2017-08-01T09:43:11.216Z,21.71
2017-08-01T09:44:11.221Z,21.66
2017-08-01T09:45:11.209Z,21.66
2017-08-01T09:46:11.211Z,21.19
2017-08-01T09:47:11.223Z,21.51
2017-08-01T09:48:11.197Z,21.56
2017-08-01T09:49:11.231Z,21.73
2017-08-01T09:50:10.898Z,21.86
2017-08-01T09:51:11.206Z,21.81
2017-08-01T09:52:11.216Z,21.86
2017-08-01T09:53:11.210Z,22.36
2017-08-01T09:54:11.204Z,22.85
2017-08-01T09:55:11.202Z,23
2017-08-01T09:56:10.894Z,23.44
2017-08-01T09:57:11.206Z,23.07
2017-08-01T09:58:11.207Z,23.23
2017-08-01T10:01:42.999Z,22.86
2017-08-01T10:02:11.188Z,22.85
2017-08-01T10:03:11.200Z,22.49
2017-08-01T10:04:11.199Z,22.56
2017-08-01T10:05:11.199Z,22.35
2017-08-01T10:06:10.885Z,22.66
2017-08-01T10:07:11.193Z,22.82
2017-08-01T10:08:10.893Z,22.63
2017-08-01T10:09:11.244Z,22.66
2017-08-01T10:10:10.576Z,22.64
2017-08-01T10:11:11.225Z,22.15
2017-08-01T10:12:10.930Z,22.08
2017-08-01T10:13:11.229Z,22.31
2017-08-01T10:14:11.240Z,22.45
2017-08-01T10:15:11.202Z,22.74
2017-08-01T10:16:11.176Z,22.54
2017-08-01T10:17:11.172Z,22.64
2017-08-01T10:18:11.183Z,22.72
2017-08-01T10:19:10.885Z,22.38
2017-08-01T10:20:11.181Z,22.51
2017-08-01T10:21:10.879Z,22.42
2017-08-01T10:22:11.177Z,22.14
2017-08-01T10:23:11.180Z,22.15
2017-08-01T10:24:11.175Z,21.7
2017-08-01T10:25:11.162Z,21.26
2017-08-01T10:26:10.869Z,21.24
2017-08-01T10:27:11.173Z,19.21
2017-08-01T10:28:10.854Z,19.57
2017-08-01T10:29:11.156Z,20.42
2017-08-01T10:30:11.159Z,21.05
2017-08-01T10:31:11.150Z,21.68
2017-08-01T10:32:11.147Z,21.7
2017-08-01T10:33:10.884Z,21.9
2017-08-01T10:34:11.155Z,21.86
2017-08-01T10:35:11.151Z,22.08
2017-08-01T10:36:11.179Z,21.75
2017-08-01T10:37:10.851Z,22.02
2017-08-01T10:38:11.166Z,22.41
2017-08-01T10:39:11.171Z,22.85
2017-08-01T10:40:11.154Z,22.24
2017-08-01T10:41:11.136Z,22.39
2017-08-01T10:42:10.844Z,22.19
2017-08-01T10:43:11.142Z,22.2
2017-08-01T10:44:10.839Z,22.35
2017-08-01T10:45:11.150Z,22.61
2017-08-01T10:46:11.127Z,23.25
2017-08-01T10:47:11.138Z,23.12
2017-08-01T10:48:10.832Z,22.56
2017-08-01T10:49:10.838Z,22.24
2017-08-01T10:50:10.837Z,22.08
2017-08-01T10:51:11.128Z,22.24
2017-08-01T10:52:10.836Z,22.59
2017-08-01T10:53:11.141Z,22.86
2017-08-01T10:54:11.119Z,23
2017-08-01T10:55:11.132Z,23.06
2017-08-01T10:56:11.134Z,22.69
2017-08-01T10:57:10.830Z,22.54
2017-08-01T10:58:11.125Z,22.63
2017-08-01T10:59:10.817Z,23.03
2017-08-01T11:00:11.134Z,23.14
2017-08-01T11:01:10.821Z,22.99
2017-08-01T11:02:10.821Z,23.26
2017-08-01T11:03:10.827Z,22.86
2017-08-01T11:04:11.123Z,23.18
2017-08-01T11:05:11.114Z,22.08
2017-08-01T11:06:11.123Z,21.96
2017-08-01T11:07:10.808Z,21.08
2017-08-01T11:08:11.114Z,20.64
2017-08-01T11:09:11.115Z,20.27
2017-08-01T11:10:10.807Z,20.5
2017-08-01T11:11:11.107Z,19.6
2017-08-01T11:12:10.814Z,20.48
2017-08-01T11:13:10.813Z,21.26
2017-08-01T11:14:10.807Z,21.83
2017-08-01T11:15:10.503Z,22.05
2017-08-01T11:16:10.508Z,22.24
2017-08-01T11:17:11.112Z,21.82
2017-08-01T11:18:10.803Z,20.85
2017-08-01T11:19:10.500Z,20.19
2017-08-01T11:20:10.797Z,19.9
2017-08-01T11:21:10.798Z,19.43
2017-08-01T11:22:11.113Z,18.13
2017-08-01T11:23:11.099Z,17.47
2017-08-01T11:24:11.099Z,17.53
2017-08-01T11:25:11.089Z,18.1
2017-08-01T11:26:11.102Z,18.57
2017-08-01T11:27:11.101Z,18.91
2017-08-01T11:28:10.787Z,19.35
2017-08-01T11:29:11.086Z,19.72
2017-08-01T11:30:11.088Z,19.92
2017-08-01T11:31:11.086Z,20.34
2017-08-01T11:32:11.094Z,21.01
2017-08-01T11:33:11.079Z,20.68
2017-08-01T11:34:11.070Z,20.51
2017-08-01T11:35:11.080Z,20.53
2017-08-01T11:36:11.082Z,20.4
2017-08-01T11:37:11.071Z,20.35
2017-08-01T11:38:11.065Z,20.53
2017-08-01T11:39:11.070Z,21.12
2017-08-01T11:40:11.068Z,21.38
2017-08-01T11:41:10.763Z,21.86
2017-08-01T11:42:11.057Z,22.57
2017-08-01T11:43:11.065Z,22.76
2017-08-01T11:44:10.457Z,23.15
2017-08-01T11:45:11.058Z,23.21
2017-08-01T11:46:11.053Z,23.09
2017-08-01T11:47:11.058Z,22.84
2017-08-01T11:48:11.050Z,22.75
2017-08-01T11:49:11.048Z,21.89
2017-08-01T11:50:11.037Z,21.3
2017-08-01T11:51:10.755Z,21.49
2017-08-01T11:52:11.058Z,21.91
2017-08-01T11:53:11.038Z,22.14
2017-08-01T11:54:11.042Z,21.89
2017-08-01T11:55:10.744Z,21.86
2017-08-01T11:56:11.040Z,21.46
2017-08-01T11:57:11.035Z,20.97
2017-08-01T11:58:11.045Z,21.61
2017-08-01T11:59:11.047Z,21.85
2017-08-01T12:00:10.736Z,20.38
2017-08-01T12:01:11.032Z,20.93
2017-08-01T12:02:11.032Z,20.88
2017-08-01T12:03:11.038Z,21.09
2017-08-01T12:04:10.726Z,21.03
2017-08-01T12:05:11.040Z,21.01
2017-08-01T12:06:11.038Z,21.4
2017-08-01T12:07:11.026Z,21.89
2017-08-01T12:08:11.045Z,21.28
2017-08-01T12:09:11.056Z,21.09
2017-08-01T12:10:11.024Z,21.48
2017-08-01T12:11:11.032Z,21.12
2017-08-01T12:12:11.033Z,21.52
2017-08-01T12:13:11.018Z,21.22
2017-08-01T12:14:11.024Z,21.45
2017-08-01T12:15:11.021Z,21.83
2017-08-01T12:16:11.022Z,21.82
2017-08-01T12:17:11.030Z,22.29
2017-08-01T12:18:11.012Z,22.91
2017-08-01T12:19:10.708Z,23.11
2017-08-01T12:20:10.713Z,22.75
2017-08-01T12:21:10.711Z,22.41
2017-08-01T12:22:11.020Z,22.29
2017-08-01T12:23:11.011Z,22.76
2017-08-01T12:24:11.010Z,23
2017-08-01T12:25:11.012Z,22.86
2017-08-01T12:26:11.024Z,22.78
2017-08-01T12:27:11.007Z,23.11
2017-08-01T12:28:11.014Z,22.49
2017-08-01T12:29:11.007Z,22.46
2017-08-01T12:30:11.017Z,21.99
2017-08-01T12:31:11.009Z,21.79
2017-08-01T12:32:11.011Z,21.86
2017-08-01T12:33:11.001Z,22.33
2017-08-01T12:34:11.000Z,22.78
2017-08-01T12:35:11.006Z,23.38
2017-08-01T12:36:11.008Z,23.86
2017-08-01T12:37:11.007Z,23.23
2017-08-01T12:38:11.000Z,23.31
2017-08-01T12:39:11.004Z,23.29
2017-08-01T12:40:11.006Z,23.18
2017-08-01T12:41:11.013Z,22.97
2017-08-01T12:42:11.005Z,22.48
2017-08-01T12:43:10.703Z,22.11
2017-08-01T12:44:11.004Z,22.49
2017-08-01T12:45:10.998Z,22.67
2017-08-01T12:46:10.705Z,23.22
2017-08-01T12:47:11.001Z,23.52
2017-08-01T12:48:11.002Z,23.54
2017-08-01T12:49:10.690Z,23.54
2017-08-01T12:50:10.697Z,24
2017-08-01T12:51:10.700Z,23.5
2017-08-01T12:52:10.697Z,23.41
2017-08-01T12:53:10.705Z,23.37
2017-08-01T12:54:11.009Z,23.12
2017-08-01T12:55:11.002Z,23.25
2017-08-01T12:56:10.702Z,23.81